Time;durP1;ratioP1;P1;durP2;ratioP2;P2;SDS_P1;SDS_P2;PMS_P1;PMS_P2;Temp;Humidity;BMP_temperature;BMP_pressure;BME280_temperature;BME280_humidity;BME280_pressure;Samples;Min_cycle;Max_cycle;Signal;HPM_P1;HPM_P2
2021/12/24 00:01:58;;;;;;;7.07;3.50;;;8.70;99.90;;;;;;4897545;29;20463;-76
2021/12/24 00:04:24;;;;;;;3.33;3.00;;;8.70;99.90;;;;;;4897352;29;20418;-76
2021/12/24 00:06:51;;;;;;;4.37;3.00;;;8.70;99.90;;;;;;4897646;29;20794;-76
2021/12/24 00:09:23;;;;;;;3.90;3.27;;;8.70;99.90;;;;;;4897399;29;20492;-77
2021/12/24 00:11:57;;;;;;;3.67;2.10;;;8.70;99.90;;;;;;4898061;29;20441;-76
2021/12/24 00:14:24;;;;;;;3.60;2.50;;;8.70;99.90;;;;;;4897321;29;20417;-76
2021/12/24 00:16:54;;;;;;;3.43;2.73;;;8.70;99.90;;;;;;4897319;29;20409;-77
2021/12/24 00:35:07;;;;;;;5.43;3.60;;;8.60;99.90;;;;;;4897204;29;20677;-76
2021/12/24 00:35:40;;;;;;;4.83;2.80;;;8.70;99.90;;;;;;4897096;29;20425;-77
2021/12/24 00:38:11;;;;;;;4.40;2.33;;;8.70;99.90;;;;;;4896969;29;20442;-76
2021/12/24 00:40:43;;;;;;;4.57;3.23;;;8.70;99.90;;;;;;4897008;29;20422;-76
2021/12/24 00:43:09;;;;;;;2.43;2.23;;;8.70;99.90;;;;;;4896616;29;20500;-76
2021/12/24 00:45:44;;;;;;;6.30;2.63;;;8.70;99.90;;;;;;4896944;29;20438;-77
2021/12/24 00:48:15;;;;;;;6.90;2.70;;;8.50;99.90;;;;;;4896918;29;20418;-76
2021/12/24 00:51:19;;;;;;;4.57;2.60;;;8.50;99.90;;;;;;4896518;29;20471;-75
2021/12/24 00:56:16;;;;;;;4.00;2.80;;;8.30;99.90;;;;;;4896701;29;20420;-76
2021/12/24 00:58:43;;;;;;;2.93;2.53;;;8.30;99.90;;;;;;4896847;29;20666;-76
2021/12/24 05:32:26;;;;;;;2.10;1.90;;;9.40;99.90;;;;;;5127262;23;20989;-74
2021/12/24 05:34:52;;;;;;;2.13;1.93;;;9.50;99.90;;;;;;4930637;29;20452;-78
2021/12/24 05:37:17;;;;;;;3.80;2.77;;;9.50;99.90;;;;;;4934509;29;20184;-77
2021/12/24 05:39:43;;;;;;;5.30;2.00;;;9.60;99.90;;;;;;4934324;29;20183;-77
2021/12/24 05:42:08;;;;;;;2.43;2.23;;;9.60;99.90;;;;;;4920489;29;20835;-76
2021/12/24 05:44:34;;;;;;;5.67;2.53;;;9.60;99.90;;;;;;4914384;29;20188;-76
2021/12/24 05:47:00;;;;;;;4.80;2.73;;;9.60;99.90;;;;;;4915329;29;20195;-76
2021/12/24 05:49:26;;;;;;;2.87;2.53;;;9.70;99.90;;;;;;4915630;29;20197;-73
2021/12/24 05:51:52;;;;;;;4.13;2.77;;;9.70;99.90;;;;;;4915411;29;20465;-74
2021/12/24 05:54:17;;;;;;;2.83;2.37;;;9.80;99.90;;;;;;4915711;29;20194;-74
2021/12/24 05:56:44;;;;;;;2.77;2.50;;;9.80;99.90;;;;;;4915702;29;20177;-73
2021/12/24 05:59:10;;;;;;;2.27;2.10;;;9.80;99.90;;;;;;4915422;29;20183;-73
2021/12/24 06:01:36;;;;;;;2.50;2.30;;;9.90;99.90;;;;;;4914881;29;20831;-72
2021/12/24 06:04:02;;;;;;;3.10;2.80;;;9.90;99.90;;;;;;4915316;29;20271;-74
2021/12/24 06:06:27;;;;;;;2.50;2.40;;;9.90;99.90;;;;;;4915571;29;20398;-73
2021/12/24 06:08:53;;;;;;;3.13;2.07;;;9.90;99.90;;;;;;4916381;29;20434;-73
2021/12/24 06:11:19;;;;;;;3.47;2.60;;;10.00;99.90;;;;;;4914841;29;20230;-72
2021/12/24 06:13:46;;;;;;;4.53;3.20;;;10.00;99.90;;;;;;4915301;29;20190;-73
2021/12/24 06:16:11;;;;;;;4.40;3.13;;;10.00;99.90;;;;;;4918057;29;20208;-73
2021/12/24 06:18:40;;;;;;;3.37;2.37;;;10.00;99.90;;;;;;4918581;29;20427;-73
2021/12/24 06:21:06;;;;;;;3.40;3.10;;;10.00;99.90;;;;;;4918070;29;20582;-72
2021/12/24 06:23:33;;;;;;;3.43;2.87;;;10.00;99.90;;;;;;4918141;29;20427;-73
2021/12/24 06:26:00;;;;;;;3.30;2.10;;;10.00;99.90;;;;;;4918167;29;20425;-73
2021/12/24 06:28:27;;;;;;;2.90;2.37;;;10.00;99.90;;;;;;4918160;29;20429;-73
2021/12/24 06:30:53;;;;;;;3.80;2.70;;;10.10;99.90;;;;;;4917862;29;20489;-73
2021/12/24 06:33:19;;;;;;;3.17;2.40;;;10.00;99.90;;;;;;4917919;29;20425;-72
2021/12/24 06:35:45;;;;;;;2.90;2.67;;;10.10;99.90;;;;;;4917820;29;20959;-74
2021/12/24 06:38:11;;;;;;;4.17;2.50;;;10.10;99.90;;;;;;4917792;29;20268;-74
2021/12/24 06:40:37;;;;;;;2.97;2.33;;;10.10;99.90;;;;;;4917856;29;20415;-73
2021/12/24 06:43:03;;;;;;;3.03;2.77;;;10.10;99.90;;;;;;4917894;29;20516;-73
2021/12/24 06:45:29;;;;;;;2.80;2.43;;;10.10;99.90;;;;;;4917779;29;20216;-73
2021/12/24 06:47:57;;;;;;;4.20;3.30;;;10.10;99.90;;;;;;4918149;29;20437;-73
2021/12/24 06:50:23;;;;;;;3.07;2.77;;;10.10;99.90;;;;;;4917531;29;20971;-73
2021/12/24 06:52:50;;;;;;;8.83;3.37;;;10.10;99.90;;;;;;4918036;29;20956;-72
2021/12/24 06:55:16;;;;;;;3.70;2.67;;;10.10;99.90;;;;;;4917819;29;20419;-73
2021/12/24 06:57:42;;;;;;;5.10;2.97;;;10.10;99.90;;;;;;4918039;29;20421;-73
2021/12/24 07:00:12;;;;;;;4.63;3.27;;;10.10;99.90;;;;;;4917710;29;20556;-73
2021/12/24 07:02:37;;;;;;;6.17;3.87;;;10.10;99.90;;;;;;4917463;29;20514;-72
2021/12/24 07:05:03;;;;;;;2.97;2.77;;;10.10;99.90;;;;;;4917284;29;20519;-73
2021/12/24 07:07:29;;;;;;;3.43;2.57;;;10.00;99.90;;;;;;4917615;29;20192;-73
2021/12/24 07:09:55;;;;;;;3.67;3.30;;;9.90;99.90;;;;;;4931781;29;20953;-73
2021/12/24 07:12:20;;;;;;;4.30;3.10;;;9.90;99.90;;;;;;4917252;29;20879;-73
2021/12/24 07:14:47;;;;;;;6.47;3.50;;;9.90;99.90;;;;;;4917687;29;20721;-71
2021/12/24 07:17:12;;;;;;;7.50;3.70;;;9.80;99.90;;;;;;4917503;29;20268;-70
2021/12/24 07:19:38;;;;;;;3.00;2.80;;;9.80;99.90;;;;;;4917087;29;20531;-71
2021/12/24 07:22:04;;;;;;;7.30;2.87;;;9.80;99.90;;;;;;4916722;29;20211;-70
2021/12/24 07:24:29;;;;;;;3.03;2.80;;;9.80;99.90;;;;;;4916502;29;20195;-70
2021/12/24 07:26:55;;;;;;;2.80;2.50;;;9.70;99.90;;;;;;4916077;29;20435;-70
2021/12/24 07:29:21;;;;;;;4.27;3.40;;;9.70;99.90;;;;;;4915921;29;20239;-71
2021/12/24 07:31:46;;;;;;;5.17;3.77;;;9.60;99.90;;;;;;4916251;29;20224;-71
2021/12/24 07:34:12;;;;;;;4.37;3.00;;;9.60;99.90;;;;;;4916491;29;20203;-72
2021/12/24 07:36:37;;;;;;;3.43;3.13;;;9.60;99.90;;;;;;4916673;29;20880;-71
2021/12/24 07:39:04;;;;;;;7.87;3.33;;;9.50;99.90;;;;;;4916541;29;20191;-71
2021/12/24 07:41:29;;;;;;;4.13;2.90;;;9.50;99.90;;;;;;4916052;29;20227;-70
2021/12/24 07:43:56;;;;;;;3.47;3.17;;;9.50;99.90;;;;;;4916250;29;20424;-71
2021/12/24 07:46:24;;;;;;;6.03;3.73;;;9.40;99.90;;;;;;4914944;29;20290;-71
2021/12/24 07:48:50;;;;;;;3.27;3.00;;;9.40;99.90;;;;;;4914444;29;20452;-71
2021/12/24 07:54:03;;;;;;;4.17;3.20;;;9.30;99.90;;;;;;4916340;29;20240;-70
2021/12/24 07:56:32;;;;;;;4.57;3.10;;;9.30;99.90;;;;;;4916333;29;20430;-71
2021/12/24 07:58:58;;;;;;;3.93;3.00;;;9.30;99.90;;;;;;4916374;29;20400;-69
2021/12/24 08:01:25;;;;;;;7.20;2.70;;;9.30;99.90;;;;;;4915684;29;20452;-72
2021/12/24 08:03:52;;;;;;;5.73;3.00;;;9.30;99.90;;;;;;4915590;29;20430;-71
2021/12/24 08:06:19;;;;;;;3.10;2.73;;;9.30;99.90;;;;;;4917348;29;20446;-71
2021/12/24 08:08:44;;;;;;;5.70;2.43;;;9.30;99.90;;;;;;4938856;29;20926;-71
2021/12/24 08:11:10;;;;;;;3.07;2.83;;;9.30;99.90;;;;;;4914826;29;20476;-71
2021/12/24 08:13:35;;;;;;;4.70;3.00;;;9.30;99.90;;;;;;4908458;29;20209;-72
2021/12/24 08:16:01;;;;;;;2.20;2.00;;;9.40;99.90;;;;;;4911381;29;20208;-72
2021/12/24 08:18:26;;;;;;;3.47;2.73;;;9.40;99.90;;;;;;4915381;29;20188;-69
2021/12/24 08:20:52;;;;;;;4.10;2.87;;;9.40;99.90;;;;;;4915792;29;20673;-70
2021/12/24 08:23:17;;;;;;;3.23;2.93;;;9.40;99.90;;;;;;4915588;29;20183;-71
2021/12/24 08:25:43;;;;;;;4.43;2.77;;;9.40;99.90;;;;;;4915862;29;20226;-71
2021/12/24 08:28:08;;;;;;;2.50;2.23;;;9.40;99.90;;;;;;4915815;29;20248;-71
2021/12/24 08:30:34;;;;;;;5.03;3.27;;;9.40;99.90;;;;;;4915170;29;20231;-71
2021/12/24 08:33:01;;;;;;;3.50;2.80;;;9.40;99.90;;;;;;4915666;29;20216;-71
2021/12/24 08:35:28;;;;;;;2.63;2.07;;;9.50;99.90;;;;;;4915663;29;20186;-70
2021/12/24 08:37:53;;;;;;;3.30;2.50;;;9.50;99.90;;;;;;4915641;29;20452;-71
2021/12/24 08:40:20;;;;;;;4.00;3.60;;;9.50;99.90;;;;;;4914640;29;20458;-71
2021/12/24 08:42:45;;;;;;;8.90;3.10;;;9.50;99.90;;;;;;4913980;29;20443;-71
2021/12/24 08:45:12;;;;;;;5.40;4.90;;;9.50;99.90;;;;;;4915523;29;20475;-71
2021/12/24 08:47:38;;;;;;;2.83;2.63;;;9.50;99.90;;;;;;4915756;29;20184;-73
2021/12/24 08:50:05;;;;;;;5.60;3.97;;;9.50;99.90;;;;;;4915419;29;20957;-70
2021/12/24 08:52:31;;;;;;;9.23;4.73;;;9.50;99.90;;;;;;4915407;29;20286;-74
2021/12/24 08:54:56;;;;;;;6.13;3.63;;;9.50;99.90;;;;;;4914682;29;20530;-75
2021/12/24 08:57:22;;;;;;;3.33;3.00;;;9.60;99.90;;;;;;4915356;29;20181;-74
2021/12/24 08:59:47;;;;;;;12.83;4.00;;;9.60;99.90;;;;;;4915390;29;20558;-74
2021/12/24 09:02:13;;;;;;;3.10;2.87;;;9.60;99.90;;;;;;4909159;29;20234;-74
2021/12/24 09:04:38;;;;;;;6.60;3.23;;;9.60;99.90;;;;;;4911862;29;20201;-73
2021/12/24 09:07:04;;;;;;;4.50;3.47;;;9.60;99.90;;;;;;4912270;29;20691;-72
2021/12/24 09:09:30;;;;;;;5.33;2.43;;;9.50;99.90;;;;;;4912890;29;20673;-71
2021/12/24 09:11:55;;;;;;;4.80;2.23;;;9.50;99.90;;;;;;4911829;29;20255;-73
2021/12/24 09:14:22;;;;;;;2.73;2.43;;;9.50;99.90;;;;;;4912259;29;20208;-73
2021/12/24 09:16:48;;;;;;;5.23;2.40;;;9.50;99.90;;;;;;4912305;29;20700;-72
2021/12/24 09:19:19;;;;;;;4.97;2.60;;;9.50;99.90;;;;;;4910279;29;20538;-72
2021/12/24 09:21:45;;;;;;;2.40;2.23;;;9.50;99.90;;;;;;4911995;29;20459;-73
2021/12/24 09:24:11;;;;;;;3.77;2.50;;;9.40;99.90;;;;;;4910923;29;20435;-74
2021/12/24 09:26:37;;;;;;;2.83;2.63;;;9.40;99.90;;;;;;4911702;29;20283;-72
2021/12/24 09:29:06;;;;;;;2.83;2.53;;;9.50;99.90;;;;;;4910945;29;20546;-73
2021/12/24 09:31:32;;;;;;;3.40;2.40;;;9.40;99.90;;;;;;4911569;29;20451;-72
2021/12/24 09:33:58;;;;;;;2.63;2.43;;;9.40;99.90;;;;;;4911262;29;20425;-73
2021/12/24 09:36:26;;;;;;;3.13;2.63;;;9.40;99.90;;;;;;4912005;29;20441;-72
2021/12/24 09:38:54;;;;;;;4.37;3.03;;;9.40;99.90;;;;;;4911972;29;20204;-73
2021/12/24 09:41:20;;;;;;;2.33;2.13;;;9.30;99.90;;;;;;4911484;29;20431;-72
2021/12/24 09:43:46;;;;;;;2.80;2.60;;;9.30;99.90;;;;;;4911330;29;20414;-73
2021/12/24 09:46:12;;;;;;;3.57;2.70;;;9.30;99.90;;;;;;4911176;29;20957;-72
2021/12/24 09:48:38;;;;;;;3.07;2.87;;;9.30;99.90;;;;;;4911683;29;20504;-72
2021/12/24 09:51:04;;;;;;;2.87;2.53;;;9.30;99.90;;;;;;4915045;29;20303;-73
2021/12/24 09:53:29;;;;;;;3.37;3.03;;;9.20;99.90;;;;;;4915063;29;20535;-74
2021/12/24 09:55:55;;;;;;;3.80;3.23;;;9.20;99.90;;;;;;4915582;29;20196;-72
2021/12/24 09:58:21;;;;;;;6.93;2.70;;;9.20;99.90;;;;;;4916330;29;20195;-72
2021/12/24 10:00:47;;;;;;;3.20;2.97;;;9.10;99.90;;;;;;4915543;29;21945;-73
2021/12/24 10:03:34;;;;;;;4.63;2.80;;;9.10;99.90;;;;;;4915000;29;20204;-72
2021/12/24 10:06:01;;;;;;;2.93;2.67;;;9.10;99.90;;;;;;4914940;29;20211;-73
2021/12/24 10:08:28;;;;;;;2.50;2.27;;;9.10;99.90;;;;;;4915873;29;20444;-72
2021/12/24 10:11:06;;;;;;;2.87;2.67;;;9.00;99.90;;;;;;4915592;29;20477;-71
2021/12/24 10:13:43;;;;;;;6.00;3.60;;;9.00;99.90;;;;;;4914229;29;20470;-73
2021/12/24 10:16:13;;;;;;;5.57;2.67;;;9.00;99.90;;;;;;4915185;29;20463;-72
2021/12/24 10:18:48;;;;;;;2.73;2.53;;;9.10;99.90;;;;;;4916004;29;20455;-73
2021/12/24 10:21:19;;;;;;;5.73;3.07;;;9.10;99.90;;;;;;4915499;29;20447;-72
2021/12/24 10:23:55;;;;;;;2.97;2.77;;;9.20;99.90;;;;;;4915002;29;20892;-73
2021/12/24 10:26:34;;;;;;;4.13;3.17;;;9.20;99.90;;;;;;4915043;29;20441;-73
2021/12/24 10:29:04;;;;;;;2.60;2.37;;;9.20;99.90;;;;;;4915037;29;20477;-72
2021/12/24 10:31:43;;;;;;;4.10;2.50;;;9.20;99.90;;;;;;4915318;29;20831;-74
2021/12/24 10:34:22;;;;;;;2.97;2.43;;;9.20;99.90;;;;;;4914795;29;20433;-72
2021/12/24 10:36:58;;;;;;;2.60;2.40;;;9.20;99.90;;;;;;4913272;29;20806;-72
2021/12/24 10:39:27;;;;;;;2.33;2.13;;;9.20;99.90;;;;;;4914511;29;20862;-73
2021/12/24 10:41:55;;;;;;;3.10;2.47;;;9.20;99.90;;;;;;4914878;29;20548;-72
2021/12/24 10:44:29;;;;;;;2.57;2.33;;;9.20;99.90;;;;;;4914827;29;21416;-73
2021/12/24 10:47:00;;;;;;;2.23;2.13;;;9.10;99.90;;;;;;4913306;29;20468;-73
2021/12/24 10:52:42;;;;;;;2.00;1.80;;;9.10;99.90;;;;;;4914537;29;20444;-72
2021/12/24 10:54:53;;;;;;;8.00;5.80;;;9.20;99.90;;;;;;4914305;29;20450;-73
2021/12/24 10:57:23;;;;;;;2.60;2.37;;;9.20;99.90;;;;;;4913223;29;20952;-73
2021/12/24 10:59:51;;;;;;;2.43;2.07;;;9.20;99.90;;;;;;4913834;29;20814;-73
2021/12/24 11:02:17;;;;;;;1.80;1.70;;;9.30;99.90;;;;;;4913433;29;20443;-72
2021/12/24 11:04:44;;;;;;;1.80;1.70;;;9.30;99.90;;;;;;4915033;29;20876;-73
2021/12/24 11:07:31;;;;;;;3.10;1.50;;;9.30;99.90;;;;;;4914558;29;20440;-72
2021/12/24 11:10:12;;;;;;;1.57;1.47;;;9.30;99.90;;;;;;4912180;29;20563;-73
2021/12/24 11:12:43;;;;;;;2.80;1.60;;;9.30;99.90;;;;;;4915251;29;20492;-73
2021/12/24 11:15:19;;;;;;;1.93;1.67;;;9.30;99.90;;;;;;4915215;29;20410;-73
2021/12/24 11:17:45;;;;;;;2.33;2.13;;;9.30;99.90;;;;;;4916438;29;20420;-74
2021/12/24 11:20:11;;;;;;;2.20;2.10;;;9.30;99.90;;;;;;4916730;29;20925;-73
2021/12/24 11:23:06;;;;;;;1.30;1.20;;;9.30;99.90;;;;;;4914219;29;20220;-73
2021/12/24 11:25:38;;;;;;;2.17;1.30;;;9.40;99.90;;;;;;4909589;29;20794;-74
2021/12/24 11:28:04;;;;;;;1.80;1.40;;;9.40;99.90;;;;;;4916640;29;20459;-73
2021/12/24 11:30:32;;;;;;;3.87;1.30;;;9.50;99.90;;;;;;4916415;29;20465;-72
2021/12/24 11:32:58;;;;;;;1.10;1.10;;;9.40;99.90;;;;;;4916662;29;20457;-74
2021/12/24 11:35:25;;;;;;;2.30;1.10;;;9.40;99.90;;;;;;4916664;29;20408;-70
2021/12/24 11:37:53;;;;;;;1.73;0.87;;;9.40;99.90;;;;;;4916544;29;20415;-73
2021/12/24 11:40:21;;;;;;;1.20;1.10;;;9.50;99.90;;;;;;4916369;29;20489;-72
2021/12/24 11:42:52;;;;;;;2.80;1.43;;;9.50;99.90;;;;;;4914805;29;20468;-73
2021/12/24 11:45:21;;;;;;;1.80;1.30;;;9.50;99.90;;;;;;4916117;29;20412;-73
2021/12/24 11:47:47;;;;;;;1.43;1.33;;;9.50;99.90;;;;;;4916350;29;20421;-78
2021/12/24 11:50:13;;;;;;;1.43;1.33;;;9.60;99.90;;;;;;4916289;29;20463;-73
2021/12/24 11:52:40;;;;;;;2.07;1.97;;;9.70;99.90;;;;;;4916795;29;20509;-74
2021/12/24 11:55:06;;;;;;;3.10;2.90;;;9.60;99.90;;;;;;4909995;29;20633;-74
2021/12/24 11:57:32;;;;;;;1.30;1.20;;;9.70;99.90;;;;;;4897511;29;20424;-73
2021/12/24 12:00:08;;;;;;;1.80;1.70;;;9.70;99.90;;;;;;4897672;29;20926;-74
2021/12/24 12:02:45;;;;;;;4.30;1.70;;;9.70;99.90;;;;;;4907700;29;20267;-74
2021/12/24 12:05:22;;;;;;;1.20;1.10;;;9.70;99.90;;;;;;4916196;29;20755;-74
2021/12/24 12:07:49;;;;;;;1.20;1.10;;;9.80;99.90;;;;;;4916355;29;20427;-74
2021/12/24 12:10:51;;;;;;;2.30;1.27;;;9.80;99.90;;;;;;4909578;29;21019;-75
2021/12/24 12:13:37;;;;;;;1.33;1.10;;;9.80;99.90;;;;;;4905793;29;20482;-73
2021/12/24 12:16:05;;;;;;;3.50;2.80;;;9.90;99.90;;;;;;4912008;29;21112;-73
2021/12/24 12:18:33;;;;;;;10.17;6.77;;;9.90;99.90;;;;;;4911108;29;20927;-74
2021/12/24 12:21:36;;;;;;;1.60;1.50;;;10.00;99.90;;;;;;4911146;29;20450;-75
2021/12/24 12:26:41;;;;;;;1.00;0.90;;;10.10;99.90;;;;;;4912824;29;20420;-75
2021/12/24 12:29:19;;;;;;;0.73;0.73;;;10.20;99.90;;;;;;4907994;29;20419;-76
2021/12/24 12:31:50;;;;;;;1.17;0.80;;;10.20;99.90;;;;;;4910810;29;20469;-75
2021/12/24 12:34:43;;;;;;;1.83;1.47;;;10.20;99.90;;;;;;4910722;29;20791;-73
2021/12/24 12:37:14;;;;;;;1.77;1.67;;;10.30;99.90;;;;;;4909337;29;20417;-74
2021/12/24 12:39:40;;;;;;;1.20;1.20;;;10.20;99.90;;;;;;4910892;29;20422;-75
2021/12/24 12:42:06;;;;;;;1.80;1.63;;;10.20;99.90;;;;;;4911386;29;20435;-74
2021/12/24 12:44:38;;;;;;;2.47;1.10;;;10.20;99.90;;;;;;4911811;29;20179;-73
2021/12/24 12:47:11;;;;;;;1.33;1.23;;;10.10;99.90;;;;;;4911354;29;20459;-74
2021/12/24 12:49:36;;;;;;;1.00;0.90;;;10.10;99.90;;;;;;4910604;29;20438;-74
2021/12/24 12:52:07;;;;;;;0.80;0.80;;;10.10;99.90;;;;;;4911419;29;20451;-75
2021/12/24 12:54:48;;;;;;;0.80;0.80;;;10.20;99.90;;;;;;4911584;29;20236;-74
2021/12/24 12:57:29;;;;;;;0.90;0.70;;;10.20;99.90;;;;;;4910121;29;20439;-75
2021/12/24 13:00:21;;;;;;;1.10;1.00;;;10.20;99.90;;;;;;4910320;29;20921;-74
2021/12/24 13:03:01;;;;;;;0.70;0.70;;;10.20;99.90;;;;;;4910736;29;21088;-74
2021/12/24 13:05:28;;;;;;;0.97;0.70;;;10.10;99.90;;;;;;4908315;29;21021;-75
2021/12/24 13:07:59;;;;;;;1.07;1.07;;;10.20;99.90;;;;;;4909938;29;20404;-74
2021/12/24 13:10:26;;;;;;;1.07;0.80;;;10.10;99.90;;;;;;4910978;29;20507;-75
2021/12/24 13:12:59;;;;;;;1.13;1.00;;;10.10;99.90;;;;;;4910040;29;20466;-75
2021/12/24 13:15:25;;;;;;;0.73;0.73;;;10.10;99.90;;;;;;4908777;29;20418;-75
2021/12/24 13:17:50;;;;;;;1.10;0.93;;;10.10;99.90;;;;;;4911359;29;20439;-75
2021/12/24 13:23:21;;;;;;;1.43;0.90;;;10.10;99.90;;;;;;4895014;29;20246;-74
2021/12/24 13:25:47;;;;;;;1.67;0.80;;;10.10;99.90;;;;;;4914546;29;20870;-75
2021/12/24 13:28:13;;;;;;;0.60;0.60;;;10.10;99.90;;;;;;4915270;29;20481;-75
2021/12/24 13:30:38;;;;;;;1.03;0.87;;;10.10;99.90;;;;;;4914264;29;20219;-75
2021/12/24 13:33:07;;;;;;;0.80;0.50;;;10.20;99.90;;;;;;4916188;29;20198;-75
2021/12/24 13:35:42;;;;;;;1.67;0.70;;;10.10;99.90;;;;;;4919492;29;20331;-75
2021/12/24 13:38:24;;;;;;;0.97;0.80;;;10.10;99.90;;;;;;4917939;29;20519;-74
2021/12/24 13:40:50;;;;;;;1.00;0.77;;;10.10;99.90;;;;;;4917887;29;20526;-74
2021/12/24 13:43:18;;;;;;;0.60;0.50;;;10.10;99.90;;;;;;4917584;29;20451;-75
2021/12/24 13:45:48;;;;;;;0.70;0.70;;;10.10;99.90;;;;;;4919199;29;20850;-75
2021/12/24 13:48:24;;;;;;;1.10;0.70;;;10.10;99.90;;;;;;4918539;29;20463;-74
2021/12/24 13:56:19;;;;;;;2.80;2.60;;;10.10;99.90;;;;;;4915596;29;20486;-75
2021/12/24 13:58:57;;;;;;;1.70;0.80;;;10.10;99.90;;;;;;4916948;29;20458;-75
2021/12/24 14:01:28;;;;;;;1.30;1.17;;;10.10;99.90;;;;;;4915376;29;20454;-75
2021/12/24 14:03:54;;;;;;;3.40;2.57;;;10.10;99.90;;;;;;4917123;29;20438;-75
2021/12/24 14:06:20;;;;;;;14.20;6.20;;;10.10;99.90;;;;;;4917941;29;20423;-76
2021/12/24 14:08:46;;;;;;;2.93;1.90;;;10.10;99.90;;;;;;4918439;29;20933;-75
2021/12/24 14:11:19;;;;;;;1.43;1.20;;;10.00;99.90;;;;;;4918030;29;20559;-74
2021/12/24 14:13:52;;;;;;;0.93;0.80;;;10.00;99.90;;;;;;4918357;29;20184;-76
2021/12/24 14:19:05;;;;;;;2.20;1.70;;;10.00;99.90;;;;;;4918347;29;20416;-75
2021/12/24 14:24:12;;;;;;;2.17;1.50;;;9.90;99.90;;;;;;4918010;29;20428;-75
2021/12/24 14:26:46;;;;;;;2.10;2.00;;;9.90;99.90;;;;;;4918356;29;20422;-75
2021/12/24 14:29:12;;;;;;;3.23;2.93;;;10.00;99.90;;;;;;4917602;29;20860;-75
2021/12/24 14:31:54;;;;;;;1.63;1.33;;;10.00;99.90;;;;;;4917510;29;20484;-75
2021/12/24 14:34:29;;;;;;;1.70;1.10;;;9.90;99.90;;;;;;4917189;29;20651;-75
2021/12/24 14:37:04;;;;;;;1.67;1.57;;;10.00;99.90;;;;;;4917640;29;20934;-75
2021/12/24 14:39:43;;;;;;;1.60;1.17;;;9.90;99.90;;;;;;4912647;29;20545;-74
2021/12/24 14:42:20;;;;;;;0.87;0.87;;;10.00;99.90;;;;;;4913437;29;20793;-75
2021/12/24 14:44:47;;;;;;;1.43;0.70;;;10.00;99.90;;;;;;4915154;29;20425;-75
2021/12/24 14:47:18;;;;;;;3.60;2.37;;;10.00;99.90;;;;;;4916573;29;20423;-75
2021/12/24 14:49:43;;;;;;;1.77;1.50;;;10.00;99.90;;;;;;4917229;29;20416;-75
2021/12/24 14:52:19;;;;;;;1.20;1.10;;;10.00;99.90;;;;;;4914822;29;20453;-75
2021/12/24 14:55:06;;;;;;;1.20;1.10;;;10.00;99.90;;;;;;4916296;29;20580;-75
2021/12/24 14:57:32;;;;;;;1.40;1.30;;;9.90;99.90;;;;;;4914445;29;20427;-75
2021/12/24 15:00:09;;;;;;;1.77;1.13;;;9.90;99.90;;;;;;4917347;29;20431;-75
2021/12/24 15:02:40;;;;;;;0.90;0.73;;;9.90;99.90;;;;;;4917284;29;20211;-75
2021/12/24 15:05:06;;;;;;;1.00;0.90;;;9.90;99.90;;;;;;4917037;29;20421;-75
2021/12/24 15:07:32;;;;;;;1.27;0.97;;;9.90;99.90;;;;;;4917124;29;20529;-75
2021/12/24 15:10:09;;;;;;;2.73;1.67;;;9.90;99.90;;;;;;4917038;29;20560;-75
2021/12/24 15:12:47;;;;;;;2.40;0.83;;;9.90;99.90;;;;;;4917040;29;20913;-75
2021/12/24 15:15:13;;;;;;;0.90;0.90;;;9.80;99.90;;;;;;4916997;29;20823;-76
2021/12/24 15:17:40;;;;;;;1.10;0.90;;;9.80;99.90;;;;;;4916852;29;20433;-75
2021/12/24 15:20:06;;;;;;;1.83;1.27;;;9.80;99.90;;;;;;4916736;29;20929;-75
2021/12/24 15:22:32;;;;;;;2.50;0.87;;;9.80;99.90;;;;;;4916898;29;20933;-76
2021/12/24 15:24:57;;;;;;;4.93;2.30;;;9.80;99.90;;;;;;4916797;29;20431;-76
2021/12/24 15:27:31;;;;;;;4.03;3.37;;;9.70;99.90;;;;;;4916919;29;20179;-75
2021/12/24 15:29:56;;;;;;;1.97;1.60;;;9.60;99.90;;;;;;4916720;29;20203;-75
2021/12/24 15:32:22;;;;;;;2.40;1.67;;;9.60;99.90;;;;;;4916462;29;20466;-74
2021/12/24 15:34:48;;;;;;;2.60;2.27;;;9.60;99.90;;;;;;4916658;29;20180;-75
2021/12/24 15:37:13;;;;;;;1.87;1.70;;;9.60;99.90;;;;;;4916542;29;20191;-76
2021/12/24 15:39:39;;;;;;;4.43;2.00;;;9.50;99.90;;;;;;4916239;29;20365;-75
2021/12/24 15:42:05;;;;;;;1.57;0.80;;;9.50;99.90;;;;;;4915955;29;20256;-76
2021/12/24 15:44:30;;;;;;;1.10;1.10;;;9.50;99.90;;;;;;4914832;29;20191;-76
2021/12/24 15:46:56;;;;;;;5.43;3.40;;;9.50;99.90;;;;;;4914025;29;20438;-76
2021/12/24 15:49:21;;;;;;;1.50;1.40;;;9.40;99.90;;;;;;4916384;29;20834;-74
2021/12/24 15:51:47;;;;;;;1.07;1.03;;;9.40;99.90;;;;;;4916427;29;20218;-75
2021/12/24 15:54:13;;;;;;;1.70;1.43;;;9.40;99.90;;;;;;4916274;29;20275;-77
2021/12/24 15:56:39;;;;;;;1.30;1.23;;;9.30;99.90;;;;;;4917788;29;20184;-77
2021/12/24 15:59:04;;;;;;;1.40;1.30;;;9.30;99.90;;;;;;4926537;29;21651;-74
2021/12/24 16:01:30;;;;;;;1.20;0.97;;;9.30;99.90;;;;;;4915519;29;20214;-75
2021/12/24 16:03:55;;;;;;;3.70;1.00;;;9.30;99.90;;;;;;4915754;29;20184;-75
2021/12/24 16:06:21;;;;;;;1.90;1.70;;;9.30;99.90;;;;;;4916068;29;20554;-74
2021/12/24 16:08:47;;;;;;;5.63;1.10;;;9.30;99.90;;;;;;4916309;29;20828;-74
2021/12/24 16:11:12;;;;;;;1.23;1.13;;;9.20;99.90;;;;;;4915922;29;20591;-76
2021/12/24 16:13:38;;;;;;;2.30;1.20;;;9.20;99.90;;;;;;4914867;29;20188;-75
2021/12/24 16:16:06;;;;;;;1.10;1.00;;;9.20;99.90;;;;;;4916110;29;20563;-75
2021/12/24 16:18:31;;;;;;;1.00;0.90;;;9.20;99.90;;;;;;4915443;29;20180;-74
2021/12/24 16:20:57;;;;;;;0.97;0.90;;;9.10;99.90;;;;;;4915470;29;20474;-75
2021/12/24 16:23:24;;;;;;;1.63;1.53;;;9.10;99.90;;;;;;4915242;29;20177;-75
2021/12/24 16:25:50;;;;;;;1.63;1.53;;;9.10;99.90;;;;;;4916056;29;20194;-75
2021/12/24 16:28:16;;;;;;;1.00;0.90;;;9.10;99.90;;;;;;4915996;29;20764;-75
2021/12/24 16:30:42;;;;;;;3.10;2.20;;;9.10;99.90;;;;;;4915695;29;20470;-74
2021/12/24 16:33:08;;;;;;;2.37;2.17;;;9.00;99.90;;;;;;4914544;29;20183;-74
2021/12/24 16:35:34;;;;;;;2.97;2.67;;;9.00;99.90;;;;;;4915794;29;20584;-75
2021/12/24 16:38:03;;;;;;;4.80;2.40;;;9.10;99.90;;;;;;4915880;29;20418;-75
2021/12/24 16:40:31;;;;;;;2.73;2.00;;;9.00;99.90;;;;;;4915592;29;20553;-75
2021/12/24 16:42:56;;;;;;;6.23;2.00;;;9.00;99.90;;;;;;4930153;29;20438;-74
2021/12/24 16:45:26;;;;;;;1.80;1.70;;;9.00;99.90;;;;;;4915474;29;20745;-75
2021/12/24 16:47:52;;;;;;;1.77;1.67;;;9.00;99.90;;;;;;4915854;29;20175;-74
2021/12/24 16:50:18;;;;;;;1.57;1.47;;;9.00;99.90;;;;;;4915535;29;20597;-74
2021/12/24 16:52:45;;;;;;;2.10;1.60;;;9.00;99.90;;;;;;4915438;29;20575;-73
2021/12/24 16:55:10;;;;;;;2.23;1.50;;;9.00;99.90;;;;;;4915539;29;20502;-75
2021/12/24 16:57:36;;;;;;;3.50;1.50;;;9.00;99.90;;;;;;4915570;29;20414;-74
2021/12/24 17:00:03;;;;;;;2.20;1.07;;;9.00;99.90;;;;;;4915565;29;20185;-75
2021/12/24 17:02:29;;;;;;;1.43;1.30;;;9.10;99.90;;;;;;4915255;29;20308;-75
2021/12/24 17:04:54;;;;;;;1.23;1.13;;;9.10;99.90;;;;;;4915486;29;20510;-75
2021/12/24 17:07:20;;;;;;;2.60;2.27;;;9.10;99.90;;;;;;4915519;29;20187;-75
2021/12/24 17:09:46;;;;;;;3.77;2.73;;;9.10;99.90;;;;;;4915443;29;20184;-75
2021/12/24 17:12:13;;;;;;;4.27;3.00;;;9.10;99.90;;;;;;4915273;29;20200;-75
2021/12/24 17:14:41;;;;;;;6.40;4.00;;;9.10;99.90;;;;;;4915268;29;20235;-75
2021/12/24 17:17:08;;;;;;;6.77;4.30;;;9.20;99.90;;;;;;4915294;29;20834;-74
2021/12/24 17:19:33;;;;;;;7.60;3.67;;;9.10;99.90;;;;;;4915020;29;20421;-74
2021/12/24 17:21:59;;;;;;;5.20;4.27;;;9.10;99.90;;;;;;4913827;29;20493;-75
2021/12/24 17:24:26;;;;;;;2.60;2.03;;;9.10;99.90;;;;;;4913217;29;20172;-73
2021/12/24 17:26:56;;;;;;;1.17;1.07;;;9.10;99.90;;;;;;4928103;29;20184;-73
2021/12/24 17:29:23;;;;;;;1.20;0.90;;;9.20;99.90;;;;;;4913018;29;20957;-73
2021/12/24 17:31:51;;;;;;;1.10;1.00;;;9.20;99.90;;;;;;4913505;29;21063;-74
2021/12/24 17:34:19;;;;;;;1.10;0.90;;;9.20;99.90;;;;;;4914460;29;20423;-74
2021/12/24 17:36:45;;;;;;;0.90;0.80;;;9.20;99.90;;;;;;4914892;29;20431;-75
2021/12/24 17:39:11;;;;;;;2.20;1.50;;;9.20;99.90;;;;;;4914755;29;20425;-72
2021/12/24 17:41:37;;;;;;;1.30;1.20;;;9.20;99.90;;;;;;4914232;29;20216;-73
2021/12/24 17:44:02;;;;;;;1.03;0.93;;;9.20;99.90;;;;;;4915072;29;20817;-74
2021/12/24 17:46:28;;;;;;;1.20;1.10;;;9.10;99.90;;;;;;4914984;29;20199;-73
2021/12/24 17:48:53;;;;;;;1.50;1.30;;;9.10;99.90;;;;;;4914030;29;20186;-74
2021/12/24 17:51:19;;;;;;;0.90;0.90;;;9.20;99.90;;;;;;4909467;29;20262;-74
2021/12/24 17:53:44;;;;;;;0.93;0.83;;;9.10;99.90;;;;;;4911674;29;20216;-76
2021/12/24 17:56:10;;;;;;;1.20;0.90;;;9.10;99.90;;;;;;4909151;29;20554;-74
2021/12/24 17:58:35;;;;;;;1.20;1.20;;;9.10;99.90;;;;;;4908888;29;20185;-75
2021/12/24 18:01:02;;;;;;;1.47;1.37;;;9.10;99.90;;;;;;4912151;29;20257;-78
2021/12/24 18:03:28;;;;;;;3.80;1.90;;;9.10;99.90;;;;;;4915313;29;20227;-77
2021/12/24 18:05:56;;;;;;;1.40;1.30;;;9.00;99.90;;;;;;4918888;29;20420;-78
2021/12/24 18:08:22;;;;;;;1.63;1.00;;;9.10;99.90;;;;;;4915171;29;20214;-78
2021/12/24 18:10:47;;;;;;;1.40;1.07;;;9.10;99.90;;;;;;4916843;29;21033;-76
2021/12/24 18:13:17;;;;;;;1.13;0.90;;;9.10;99.90;;;;;;4917813;29;20421;-78